Time;durP1;ratioP1;P1;durP2;ratioP2;P2;SDS_P1;SDS_P2;PMS_P1;PMS_P2;Temp;Humidity;BMP_temperature;BMP_pressure;BME280_temperature;BME280_humidity;BME280_pressure;Samples;Min_cycle;Max_cycle;Signal;HPM_P1;HPM_P2
2022/08/10 00:01:16;;;;;;;;;;;21.50;96.70;;;;;;5096505;28;20254;-82
2022/08/10 00:03:42;;;;;;;;;;;21.50;97.00;;;;;;5096400;28;20041;-81
2022/08/10 00:06:07;;;;;;;;;;;21.50;98.00;;;;;;5096641;28;19918;-78
2022/08/10 00:08:33;;;;;;;;;;;21.50;97.70;;;;;;5096025;28;19939;-81
2022/08/10 00:10:58;;;;;;;;;;;21.60;96.70;;;;;;5096377;28;20285;-78
2022/08/10 00:13:24;;;;;;;;;;;21.50;97.50;;;;;;5096363;28;20008;-79
2022/08/10 00:15:51;;;;;;;;;;;21.50;98.00;;;;;;5096763;28;20406;-80
2022/08/10 00:18:17;;;;;;;;;;;21.40;98.50;;;;;;5096263;28;19908;-82
2022/08/10 00:20:42;;;;;;;;;;;21.30;97.60;;;;;;5096074;28;19908;-79
2022/08/10 00:23:08;;;;;;;;;;;21.40;97.50;;;;;;5096639;28;19915;-78
2022/08/10 00:25:34;;;;;;;;;;;21.40;96.80;;;;;;5095906;28;20276;-80
2022/08/10 00:27:59;;;;;;;;;;;21.40;97.00;;;;;;5095952;28;19958;-81
2022/08/10 00:30:25;;;;;;;;;;;21.10;99.90;;;;;;5095937;28;19912;-78
2022/08/10 00:32:50;;;;;;;;;;;20.90;99.90;;;;;;5095882;28;19966;-80
2022/08/10 00:35:16;;;;;;;;;;;20.80;99.90;;;;;;5096003;28;19908;-78
2022/08/10 00:37:41;;;;;;;;;;;20.90;99.90;;;;;;5095896;28;20356;-82
2022/08/10 00:40:07;;;;;;;;;;;20.80;99.90;;;;;;5095744;28;19914;-79
2022/08/10 00:42:33;;;;;;;;;;;20.90;99.90;;;;;;5095603;28;19920;-78
2022/08/10 00:44:58;;;;;;;;;;;20.80;99.90;;;;;;5095806;28;19908;-79
2022/08/10 00:47:24;;;;;;;;;;;20.80;99.90;;;;;;5095612;28;19916;-79
2022/08/10 00:49:50;;;;;;;;;;;20.70;99.90;;;;;;5095553;28;19908;-79
2022/08/10 00:52:17;;;;;;;;;;;20.60;99.90;;;;;;5095562;28;20003;-78
2022/08/10 00:54:43;;;;;;;;;;;20.70;99.90;;;;;;5095619;28;19951;-80
2022/08/10 00:57:12;;;;;;;;;;;20.60;99.90;;;;;;5095381;28;20376;-79
2022/08/10 00:59:38;;;;;;;;;;;20.60;99.90;;;;;;5095315;28;19909;-80
2022/08/10 01:02:04;;;;;;;;;;;20.70;99.90;;;;;;5095699;28;19915;-79
2022/08/10 01:04:29;;;;;;;;;;;20.50;99.90;;;;;;5095479;28;20346;-81
2022/08/10 01:06:58;;;;;;;;;;;20.40;99.90;;;;;;5095261;28;20011;-79
2022/08/10 01:09:42;;;;;;;;;;;20.60;99.90;;;;;;5095182;28;19916;-79
2022/08/10 01:12:28;;;;;;;;;;;20.60;99.90;;;;;;5095100;28;19965;-80
2022/08/10 01:14:53;;;;;;;;;;;20.60;99.90;;;;;;5094699;28;19915;-77
2022/08/10 01:17:33;;;;;;;;;;;20.50;99.90;;;;;;5095072;28;19912;-79
2022/08/10 01:20:07;;;;;;;;;;;20.40;99.90;;;;;;5095080;28;19908;-79
2022/08/10 01:22:51;;;;;;;;;;;20.40;99.90;;;;;;5094431;28;19948;-81
2022/08/10 01:25:28;;;;;;;;;;;20.40;99.90;;;;;;5094956;28;19912;-80
2022/08/10 01:28:04;;;;;;;;;;;20.50;99.90;;;;;;5094732;28;19919;-77
2022/08/10 01:30:31;;;;;;;;;;;20.50;99.90;;;;;;5095234;28;20284;-81
2022/08/10 01:33:23;;;;;;;;;;;20.40;99.90;;;;;;5094772;28;19908;-78
2022/08/10 01:35:56;;;;;;;;;;;20.40;99.90;;;;;;5055586;28;19908;-79
2022/08/10 01:38:30;;;;;;;;;;;20.30;99.90;;;;;;5095151;28;19908;-79
2022/08/10 01:41:00;;;;;;;;;;;20.20;99.90;;;;;;5094936;28;19912;-79
2022/08/10 01:43:26;;;;;;;;;;;20.20;99.90;;;;;;5094050;28;19924;-81
2022/08/10 01:45:54;;;;;;;;;;;20.20;99.90;;;;;;5094433;28;19916;-80
2022/08/10 01:48:30;;;;;;;;;;;20.20;99.90;;;;;;5094412;28;20384;-78
2022/08/10 01:51:07;;;;;;;;;;;20.10;99.90;;;;;;5094666;28;19912;-78
2022/08/10 01:53:38;;;;;;;;;;;19.80;99.90;;;;;;5094456;28;20388;-78
2022/08/10 01:56:04;;;;;;;;;;;19.90;99.90;;;;;;5094622;28;19931;-81
2022/08/10 01:58:32;;;;;;;;;;;19.80;99.90;;;;;;5094443;28;19999;-79
2022/08/10 02:00:59;;;;;;;;;;;19.80;99.90;;;;;;5094538;28;20364;-83
2022/08/10 02:03:25;;;;;;;;;;;19.90;99.90;;;;;;5094114;28;19999;-81
2022/08/10 02:05:53;;;;;;;;;;;20.00;99.90;;;;;;5094190;28;19908;-76
2022/08/10 02:08:19;;;;;;;;;;;20.00;99.90;;;;;;5094187;28;20023;-80
2022/08/10 02:10:46;;;;;;;;;;;20.00;99.90;;;;;;5094259;28;19951;-80
2022/08/10 02:13:15;;;;;;;;;;;19.90;99.90;;;;;;5094167;28;20285;-79
2022/08/10 02:15:41;;;;;;;;;;;19.80;99.90;;;;;;5094649;28;19951;-78
2022/08/10 02:18:07;;;;;;;;;;;19.80;99.90;;;;;;5094592;28;19994;-81
2022/08/10 02:20:38;;;;;;;;;;;19.80;99.90;;;;;;5094182;28;19943;-78
2022/08/10 02:23:07;;;;;;;;;;;19.80;99.90;;;;;;5094048;28;20333;-79
2022/08/10 02:25:33;;;;;;;;;;;19.80;99.90;;;;;;5093902;28;19909;-81
2022/08/10 02:28:00;;;;;;;;;;;19.80;99.90;;;;;;5093822;28;19958;-78
2022/08/10 02:30:27;;;;;;;;;;;19.90;99.90;;;;;;5093887;28;19915;-80
2022/08/10 02:32:53;;;;;;;;;;;19.80;99.90;;;;;;5075686;28;19931;-77
2022/08/10 02:35:20;;;;;;;;;;;19.60;99.90;;;;;;5093952;28;19915;-81
2022/08/10 02:37:47;;;;;;;;;;;19.60;99.90;;;;;;5075530;28;20269;-78
2022/08/10 02:40:14;;;;;;;;;;;19.50;99.90;;;;;;5093733;28;19908;-80
2022/08/10 02:42:45;;;;;;;;;;;19.40;99.90;;;;;;5093651;28;19924;-78
2022/08/10 02:45:18;;;;;;;;;;;19.30;99.90;;;;;;5093778;28;19915;-80
2022/08/10 02:47:51;;;;;;;;;;;19.50;99.90;;;;;;5093572;28;19912;-79
2022/08/10 02:50:20;;;;;;;;;;;19.50;99.90;;;;;;5093880;28;19912;-81
2022/08/10 02:52:49;;;;;;;;;;;19.50;99.90;;;;;;5093759;28;19918;-78
2022/08/10 02:55:22;;;;;;;;;;;19.70;99.90;;;;;;5093585;28;20002;-77
2022/08/10 02:57:51;;;;;;;;;;;19.70;99.90;;;;;;5093677;28;19914;-82
2022/08/10 03:00:16;;;;;;;;;;;19.70;99.90;;;;;;5093539;28;19967;-81
2022/08/10 03:02:45;;;;;;;;;;;19.70;99.90;;;;;;5093685;28;19946;-79
2022/08/10 03:05:12;;;;;;;;;;;19.60;99.90;;;;;;5093557;28;19913;-77
2022/08/10 03:07:44;;;;;;;;;;;19.50;99.90;;;;;;5093507;28;19912;-80
2022/08/10 03:10:13;;;;;;;;;;;19.50;99.90;;;;;;5093528;28;19915;-80
2022/08/10 03:12:39;;;;;;;;;;;19.50;99.90;;;;;;5093492;28;19915;-79
2022/08/10 03:15:05;;;;;;;;;;;19.30;99.90;;;;;;5094044;28;20376;-80
2022/08/10 03:17:31;;;;;;;;;;;19.30;99.90;;;;;;5093757;28;19908;-79
2022/08/10 03:19:58;;;;;;;;;;;19.20;99.90;;;;;;5093562;28;19987;-79
2022/08/10 03:22:25;;;;;;;;;;;19.20;99.90;;;;;;5093407;28;20002;-79
2022/08/10 03:24:51;;;;;;;;;;;19.20;99.90;;;;;;5093366;28;19908;-81
2022/08/10 03:27:16;;;;;;;;;;;19.20;99.90;;;;;;5093240;28;19987;-78
2022/08/10 03:29:42;;;;;;;;;;;19.20;99.90;;;;;;5093526;28;19980;-81
2022/08/10 03:32:09;;;;;;;;;;;19.20;99.90;;;;;;5093325;28;20355;-81
2022/08/10 03:34:35;;;;;;;;;;;19.40;99.90;;;;;;5093365;28;19918;-80
2022/08/10 03:37:00;;;;;;;;;;;19.40;99.90;;;;;;5093362;28;19908;-81
2022/08/10 03:39:26;;;;;;;;;;;19.40;99.90;;;;;;5093608;28;19958;-82
2022/08/10 03:41:54;;;;;;;;;;;19.40;99.90;;;;;;5092969;28;20003;-78
2022/08/10 03:44:24;;;;;;;;;;;19.40;99.90;;;;;;5094309;28;19952;-81
2022/08/10 03:46:51;;;;;;;;;;;19.40;99.90;;;;;;5096930;28;19982;-81
2022/08/10 03:49:18;;;;;;;;;;;19.40;99.90;;;;;;5096762;28;19908;-78
2022/08/10 03:51:44;;;;;;;;;;;19.30;99.90;;;;;;5097013;28;19943;-78
2022/08/10 03:54:10;;;;;;;;;;;19.20;99.90;;;;;;5096612;28;20284;-80
2022/08/10 03:56:37;;;;;;;;;;;19.20;99.90;;;;;;5096746;28;19909;-82
2022/08/10 03:59:03;;;;;;;;;;;19.20;99.90;;;;;;5096614;28;19915;-79
2022/08/10 04:01:29;;;;;;;;;;;19.00;99.90;;;;;;5097154;28;19916;-80
2022/08/10 04:03:54;;;;;;;;;;;18.90;99.90;;;;;;5096579;28;19956;-77
2022/08/10 04:06:20;;;;;;;;;;;18.80;99.90;;;;;;5078331;28;19962;-81
2022/08/10 04:08:46;;;;;;;;;;;18.70;99.90;;;;;;5096497;28;19914;-80
2022/08/10 04:11:12;;;;;;;;;;;18.60;99.90;;;;;;5096468;28;20048;-80
2022/08/10 04:13:37;;;;;;;;;;;18.60;99.90;;;;;;5096549;28;19974;-77
2022/08/10 04:16:04;;;;;;;;;;;18.60;99.90;;;;;;5078978;28;19969;-80
2022/08/10 04:18:29;;;;;;;;;;;18.60;99.90;;;;;;5096329;28;19912;-80
2022/08/10 04:21:01;;;;;;;;;;;18.60;99.90;;;;;;5096247;28;19961;-81
2022/08/10 04:23:29;;;;;;;;;;;18.70;99.90;;;;;;5096189;28;19908;-77
2022/08/10 04:25:55;;;;;;;;;;;18.80;99.90;;;;;;5077791;28;19977;-79
2022/08/10 04:28:21;;;;;;;;;;;18.70;99.90;;;;;;5096122;28;19909;-77
2022/08/10 04:30:48;;;;;;;;;;;18.80;99.90;;;;;;5096139;28;20354;-81
2022/08/10 04:33:16;;;;;;;;;;;18.70;99.90;;;;;;5077919;28;19909;-81
2022/08/10 04:35:43;;;;;;;;;;;18.70;99.90;;;;;;5077853;28;19908;-80
2022/08/10 04:38:09;;;;;;;;;;;18.60;99.90;;;;;;5077740;28;20273;-78
2022/08/10 04:40:35;;;;;;;;;;;18.60;99.90;;;;;;5095816;28;19915;-79
2022/08/10 04:43:03;;;;;;;;;;;18.60;99.90;;;;;;5095670;28;19927;-80
2022/08/10 04:45:28;;;;;;;;;;;18.50;99.90;;;;;;5095823;28;19908;-77
2022/08/10 04:47:54;;;;;;;;;;;18.30;99.90;;;;;;5095568;28;19919;-79
2022/08/10 04:50:19;;;;;;;;;;;18.30;99.90;;;;;;5095697;28;20293;-77
2022/08/10 04:52:45;;;;;;;;;;;18.30;99.90;;;;;;5077476;28;19912;-81
2022/08/10 04:55:11;;;;;;;;;;;18.30;99.90;;;;;;5095234;28;19908;-79
2022/08/10 04:57:36;;;;;;;;;;;18.40;99.90;;;;;;5095176;28;19965;-79
2022/08/10 05:00:03;;;;;;;;;;;18.40;99.90;;;;;;5095481;28;20364;-79
2022/08/10 05:02:28;;;;;;;;;;;18.50;99.90;;;;;;5095400;28;20353;-78
2022/08/10 05:04:54;;;;;;;;;;;18.40;99.90;;;;;;5095801;28;19908;-78
2022/08/10 05:07:19;;;;;;;;;;;18.20;99.90;;;;;;5095176;28;20288;-81
2022/08/10 05:09:46;;;;;;;;;;;18.20;99.90;;;;;;5095191;28;19919;-78
2022/08/10 05:12:12;;;;;;;;;;;18.30;99.90;;;;;;5076998;28;19915;-78
2022/08/10 05:14:37;;;;;;;;;;;18.40;99.90;;;;;;5095219;28;19908;-78
2022/08/10 05:17:03;;;;;;;;;;;18.60;99.90;;;;;;5096037;28;19955;-80
2022/08/10 05:19:28;;;;;;;;;;;18.60;99.90;;;;;;5095188;28;20368;-80
2022/08/10 05:21:54;;;;;;;;;;;18.70;99.90;;;;;;5095241;28;19916;-81
2022/08/10 05:24:20;;;;;;;;;;;18.60;99.90;;;;;;5095159;28;19978;-81
2022/08/10 05:26:45;;;;;;;;;;;18.70;99.90;;;;;;5094821;28;19942;-79
2022/08/10 05:29:11;;;;;;;;;;;18.80;99.90;;;;;;5094817;28;19935;-82
2022/08/10 05:31:36;;;;;;;;;;;18.70;99.90;;;;;;5094895;28;19915;-80
2022/08/10 05:34:02;;;;;;;;;;;18.70;99.90;;;;;;5094945;28;19912;-81
2022/08/10 05:36:28;;;;;;;;;;;18.60;99.90;;;;;;5094628;28;19908;-80
2022/08/10 05:38:54;;;;;;;;;;;18.70;99.90;;;;;;5095067;28;19958;-78
2022/08/10 05:41:19;;;;;;;;;;;18.80;99.90;;;;;;5094397;28;19912;-77
2022/08/10 05:43:45;;;;;;;;;;;18.90;99.90;;;;;;5094699;28;19980;-81
2022/08/10 05:46:11;;;;;;;;;;;19.00;99.90;;;;;;5094363;28;19924;-77
2022/08/10 05:48:37;;;;;;;;;;;19.00;99.90;;;;;;5094417;28;19908;-81
2022/08/10 05:51:03;;;;;;;;;;;18.90;99.90;;;;;;5094712;28;20405;-79
2022/08/10 05:53:31;;;;;;;;;;;19.00;99.90;;;;;;5094372;28;19908;-82
2022/08/10 05:55:58;;;;;;;;;;;19.20;99.90;;;;;;5094305;28;19908;-77
2022/08/10 05:58:23;;;;;;;;;;;19.30;99.90;;;;;;5094295;28;19908;-79
2022/08/10 06:00:53;;;;;;;;;;;19.40;99.90;;;;;;5094304;28;19915;-80
2022/08/10 06:03:22;;;;;;;;;;;19.40;99.90;;;;;;5094352;28;19908;-78
2022/08/10 06:05:48;;;;;;;;;;;19.40;99.90;;;;;;5094100;28;20002;-77
2022/08/10 06:08:19;;;;;;;;;;;19.40;99.90;;;;;;5093932;28;19986;-80
2022/08/10 06:10:45;;;;;;;;;;;19.40;99.90;;;;;;5094164;28;19939;-78
2022/08/10 06:15:57;;;;;;;;;;;19.50;99.90;;;;;;5094711;28;20291;-77
2022/08/10 06:18:23;;;;;;;;;;;19.70;99.90;;;;;;5094508;28;19908;-78
2022/08/10 06:20:49;;;;;;;;;;;19.90;99.90;;;;;;5093897;28;19999;-79
2022/08/10 06:23:15;;;;;;;;;;;20.10;99.90;;;;;;5094008;28;19971;-81
2022/08/10 06:25:41;;;;;;;;;;;20.20;99.90;;;;;;5093952;28;20393;-79
2022/08/10 06:28:09;;;;;;;;;;;20.20;99.90;;;;;;5093699;28;19962;-82
2022/08/10 06:30:36;;;;;;;;;;;20.10;99.90;;;;;;5093807;28;19912;-78
2022/08/10 06:33:03;;;;;;;;;;;20.20;99.90;;;;;;5094316;28;20003;-81
2022/08/10 06:35:30;;;;;;;;;;;20.40;99.90;;;;;;5093771;28;19915;-80
2022/08/10 06:37:57;;;;;;;;;;;20.50;99.90;;;;;;5093765;28;20003;-81
2022/08/10 06:40:26;;;;;;;;;;;20.60;99.90;;;;;;5093630;28;19915;-77
2022/08/10 06:42:53;;;;;;;;;;;20.80;99.90;;;;;;5093375;28;19920;-81
2022/08/10 06:45:22;;;;;;;;;;;20.70;99.90;;;;;;5093728;28;19915;-80
2022/08/10 06:47:50;;;;;;;;;;;20.80;99.90;;;;;;5093678;28;19919;-80
2022/08/10 06:50:41;;;;;;;;;;;21.00;99.90;;;;;;5093357;28;19999;-80
2022/08/10 06:53:12;;;;;;;;;;;21.00;99.90;;;;;;5088425;28;19908;-80
2022/08/10 06:55:41;;;;;;;;;;;21.20;99.90;;;;;;5093710;28;19909;-80
2022/08/10 06:58:08;;;;;;;;;;;21.40;99.90;;;;;;5075300;28;20360;-81
2022/08/10 07:00:36;;;;;;;;;;;21.50;99.90;;;;;;5093056;28;19908;-78
2022/08/10 07:03:05;;;;;;;;;;;21.80;99.90;;;;;;5093765;28;20283;-79
2022/08/10 07:05:34;;;;;;;;;;;23.30;99.90;;;;;;5093344;28;19915;-80
2022/08/10 07:08:00;;;;;;;;;;;25.50;99.90;;;;;;5093271;28;20027;-79
2022/08/10 07:10:26;;;;;;;;;;;27.20;99.90;;;;;;5093392;28;20380;-80
2022/08/10 07:12:55;;;;;;;;;;;28.10;95.20;;;;;;5093378;28;20292;-82
2022/08/10 07:15:21;;;;;;;;;;;28.00;86.50;;;;;;5093945;28;19921;-79
2022/08/10 07:17:47;;;;;;;;;;;27.90;85.10;;;;;;5093337;28;19908;-78
2022/08/10 07:20:15;;;;;;;;;;;27.90;85.90;;;;;;5095889;28;19908;-81
2022/08/10 07:22:41;;;;;;;;;;;27.90;86.50;;;;;;5097330;28;19908;-79
2022/08/10 07:25:08;;;;;;;;;;;27.60;86.90;;;;;;5097221;28;19908;-83
2022/08/10 07:27:34;;;;;;;;;;;27.60;86.70;;;;;;5097084;28;19951;-81
2022/08/10 07:30:00;;;;;;;;;;;27.60;86.50;;;;;;5097030;28;19908;-78
2022/08/10 07:32:26;;;;;;;;;;;27.40;84.10;;;;;;5096987;28;19918;-83
2022/08/10 07:34:53;;;;;;;;;;;27.30;85.50;;;;;;5097002;28;19931;-81
2022/08/10 07:37:21;;;;;;;;;;;27.10;83.60;;;;;;5096855;28;20352;-81
2022/08/10 07:39:47;;;;;;;;;;;27.30;84.10;;;;;;5096915;28;20418;-79
2022/08/10 07:42:14;;;;;;;;;;;27.50;83.20;;;;;;5096575;28;19960;-83
2022/08/10 07:44:40;;;;;;;;;;;27.60;82.20;;;;;;5096752;28;19915;-78
2022/08/10 07:47:07;;;;;;;;;;;27.80;82.00;;;;;;5096636;28;19916;-78
2022/08/10 07:49:34;;;;;;;;;;;27.80;80.40;;;;;;5096247;28;19967;-81
2022/08/10 07:52:00;;;;;;;;;;;28.10;80.20;;;;;;5096620;28;19988;-82
2022/08/10 07:54:29;;;;;;;;;;;28.40;78.80;;;;;;5096651;28;19972;-81
2022/08/10 07:57:02;;;;;;;;;;;28.40;75.80;;;;;;5096884;28;19908;-80
2022/08/10 07:59:43;;;;;;;;;;;28.40;75.80;;;;;;5096611;28;19915;-81
2022/08/10 08:02:27;;;;;;;;;;;28.80;76.30;;;;;;5096513;28;19950;-79
2022/08/10 08:04:53;;;;;;;;;;;28.80;73.60;;;;;;5096556;28;19908;-80
2022/08/10 08:07:19;;;;;;;;;;;28.90;73.10;;;;;;5096252;28;20049;-78
2022/08/10 08:09:45;;;;;;;;;;;29.20;71.50;;;;;;5096315;28;19912;-79
2022/08/10 08:12:12;;;;;;;;;;;29.60;71.30;;;;;;5096165;28;19919;-82
2022/08/10 08:14:42;;;;;;;;;;;29.90;69.80;;;;;;5096399;28;19908;-80
2022/08/10 08:17:07;;;;;;;;;;;29.80;69.10;;;;;;5096602;28;19908;-81
2022/08/10 08:19:33;;;;;;;;;;;29.90;68.50;;;;;;5096135;28;19923;-82
2022/08/10 08:22:00;;;;;;;;;;;30.40;67.90;;;;;;5096040;28;20375;-81
2022/08/10 08:24:26;;;;;;;;;;;30.90;66.50;;;;;;5096195;28;19919;-82
2022/08/10 08:26:53;;;;;;;;;;;31.10;65.20;;;;;;5096056;28;19920;-81
2022/08/10 08:29:19;;;;;;;;;;;30.60;63.80;;;;;;5095931;28;19915;-80
2022/08/10 08:31:45;;;;;;;;;;;30.90;64.70;;;;;;5095617;28;19908;-84
2022/08/10 08:34:12;;;;;;;;;;;31.80;63.20;;;;;;5096099;28;19995;-81
2022/08/10 08:36:40;;;;;;;;;;;32.10;61.40;;;;;;5095992;28;19908;-80
2022/08/10 08:39:06;;;;;;;;;;;32.10;61.40;;;;;;5095697;28;19915;-83
2022/08/10 08:41:38;;;;;;;;;;;32.30;60.90;;;;;;5095539;28;19920;-81
2022/08/10 08:44:03;;;;;;;;;;;32.90;59.60;;;;;;5095707;28;19991;-79
2022/08/10 08:46:43;;;;;;;;;;;32.90;57.80;;;;;;5077301;28;20439;-83
2022/08/10 08:49:17;;;;;;;;;;;33.60;58.30;;;;;;5095567;28;20352;-81
2022/08/10 08:52:06;;;;;;;;;;;34.30;56.30;;;;;;5095665;28;20326;-82
2022/08/10 08:54:38;;;;;;;;;;;34.60;56.40;;;;;;5095868;28;19909;-81
2022/08/10 08:57:35;;;;;;;;;;;35.60;55.20;;;;;;5095379;28;19908;-81
2022/08/10 09:00:04;;;;;;;;;;;35.90;52.90;;;;;;5039564;28;19915;-79
2022/08/10 09:02:42;;;;;;;;;;;36.30;52.50;;;;;;5077081;28;20398;-80
2022/08/10 09:05:34;;;;;;;;;;;36.10;52.30;;;;;;5095541;28;19908;-83
2022/08/10 09:08:26;;;;;;;;;;;37.30;52.00;;;;;;5056070;28;19919;-81
2022/08/10 09:11:10;;;;;;;;;;;37.90;50.00;;;;;;5095339;28;19908;-81
2022/08/10 09:13:38;;;;;;;;;;;38.70;49.90;;;;;;5076820;28;19912;-81
2022/08/10 09:16:04;;;;;;;;;;;39.50;48.50;;;;;;5096134;28;19915;-81
2022/08/10 09:18:45;;;;;;;;;;;39.50;47.90;;;;;;5094941;28;19908;-80
2022/08/10 09:21:22;;;;;;;;;;;39.70;47.40;;;;;;5095103;28;19939;-82
2022/08/10 09:23:54;;;;;;;;;;;40.00;47.30;;;;;;5094800;28;19995;-82
2022/08/10 09:26:21;;;;;;;;;;;40.60;46.50;;;;;;5094841;28;19955;-82
2022/08/10 09:28:50;;;;;;;;;;;41.30;46.00;;;;;;5094741;28;19990;-83
2022/08/10 09:31:19;;;;;;;;;;;41.30;45.40;;;;;;5094915;28;19965;-81
2022/08/10 09:34:03;;;;;;;;;;;41.70;45.10;;;;;;5094704;28;19908;-85
2022/08/10 09:36:47;;;;;;;;;;;42.00;44.90;;;;;;5076454;28;19909;-84
2022/08/10 09:39:25;;;;;;;;;;;42.30;44.40;;;;;;5094604;28;19915;-82
2022/08/10 09:42:10;;;;;;;;;;;42.50;43.70;;;;;;5081711;28;19920;-82
2022/08/10 09:44:42;;;;;;;;;;;43.20;43.80;;;;;;5096488;28;19990;-82
2022/08/10 09:47:26;;;;;;;;;;;43.40;42.70;;;;;;5114708;28;19918;-82
2022/08/10 09:50:04;;;;;;;;;;;44.20;42.20;;;;;;5114744;28;19908;-79
2022/08/10 09:52:48;;;;;;;;;;;44.80;41.90;;;;;;5114767;28;19915;-80
2022/08/10 09:55:23;;;;;;;;;;;45.70;41.40;;;;;;5114580;28;19908;-81
2022/08/10 09:57:49;;;;;;;;;;;45.40;40.50;;;;;;5114830;28;19915;-83
2022/08/10 10:00:18;;;;;;;;;;;46.00;40.30;;;;;;5114552;28;20364;-80
2022/08/10 10:02:56;;;;;;;;;;;48.10;39.50;;;;;;5114549;28;19915;-82
2022/08/10 10:05:40;;;;;;;;;;;48.60;38.40;;;;;;5114580;28;19915;-81
2022/08/10 10:08:12;;;;;;;;;;;49.80;38.30;;;;;;5114558;28;20006;-79
2022/08/10 10:10:44;;;;;;;;;;;50.10;37.20;;;;;;5114531;28;19908;-82
2022/08/10 10:13:13;;;;;;;;;;;50.30;36.60;;;;;;5114540;28;19999;-82
2022/08/10 10:15:41;;;;;;;;;;;51.20;36.00;;;;;;5114827;28;19907;-79
2022/08/10 10:18:07;;;;;;;;;;;52.00;35.90;;;;;;5114313;28;19908;-83
2022/08/10 10:20:45;;;;;;;;;;;52.70;35.40;;;;;;5114271;28;20018;-79
2022/08/10 10:23:17;;;;;;;;;;;52.80;34.80;;;;;;5114233;28;19947;-83
2022/08/10 10:25:57;;;;;;;;;;;53.60;34.70;;;;;;5114124;28;19908;-80
2022/08/10 10:28:33;;;;;;;;;;;54.10;34.30;;;;;;5114157;28;19912;-81
2022/08/10 10:31:17;;;;;;;;;;;53.60;34.00;;;;;;5095849;28;20256;-83
2022/08/10 10:33:48;;;;;;;;;;;54.10;34.20;;;;;;5114107;28;20391;-81
2022/08/10 10:36:14;;;;;;;;;;;53.90;32.80;;;;;;5114475;28;20419;-81
2022/08/10 10:38:40;;;;;;;;;;;53.90;33.10;;;;;;5114014;28;19907;-84
2022/08/10 10:41:06;;;;;;;;;;;52.00;33.10;;;;;;5113993;28;20006;-81
2022/08/10 10:43:55;;;;;;;;;;;53.10;33.70;;;;;;5113807;28;19920;-82
2022/08/10 10:46:39;;;;;;;;;;;53.10;32.60;;;;;;5113907;28;19908;-83
2022/08/10 10:49:23;;;;;;;;;;;53.40;32.60;;;;;;5114099;28;20387;-82
2022/08/10 10:52:15;;;;;;;;;;;52.60;32.80;;;;;;5113895;28;19908;-81
2022/08/10 10:54:48;;;;;;;;;;;53.10;32.90;;;;;;5097674;28;19908;-84
2022/08/10 10:57:21;;;;;;;;;;;53.90;32.20;;;;;;5118317;28;19911;-81
2022/08/10 11:00:08;;;;;;;;;;;53.90;32.10;;;;;;5118190;28;19914;-84
2022/08/10 11:02:42;;;;;;;;;;;53.60;32.30;;;;;;5099693;28;19907;-84
2022/08/10 11:05:26;;;;;;;;;;;53.70;31.80;;;;;;5118598;28;19908;-82
2022/08/10 11:08:03;;;;;;;;;;;53.20;32.60;;;;;;5118055;28;20333;-84
2022/08/10 11:10:35;;;;;;;;;;;54.80;32.40;;;;;;5117799;28;19958;-82
2022/08/10 11:13:00;;;;;;;;;;;55.00;31.80;;;;;;5117826;28;19907;-84
2022/08/10 11:15:32;;;;;;;;;;;53.50;32.00;;;;;;5117767;28;19952;-82
2022/08/10 11:18:02;;;;;;;;;;;54.10;32.30;;;;;;5118645;28;19973;-81
2022/08/10 11:20:36;;;;;;;;;;;52.30;32.00;;;;;;5118037;28;20387;-85
2022/08/10 11:23:07;;;;;;;;;;;51.60;32.00;;;;;;5118094;28;19931;-84
2022/08/10 11:25:37;;;;;;;;;;;51.10;32.40;;;;;;5117623;28;19915;-85
2022/08/10 11:28:03;;;;;;;;;;;50.80;32.60;;;;;;5117807;28;20376;-84
2022/08/10 11:30:47;;;;;;;;;;;51.70;32.90;;;;;;5117478;28;19932;-82
2022/08/10 11:33:16;;;;;;;;;;;51.00;32.60;;;;;;5117710;28;19915;-84
2022/08/10 11:35:42;;;;;;;;;;;52.20;32.90;;;;;;5117444;28;19907;-81
2022/08/10 11:38:14;;;;;;;;;;;52.90;32.30;;;;;;5117184;28;19912;-83
2022/08/10 11:40:48;;;;;;;;;;;52.40;32.30;;;;;;5117513;28;19932;-81
2022/08/10 11:43:18;;;;;;;;;;;50.40;32.30;;;;;;5098576;28;19926;-85
2022/08/10 11:45:45;;;;;;;;;;;50.40;32.90;;;;;;5117364;28;19915;-81
2022/08/10 11:48:16;;;;;;;;;;;51.20;32.40;;;;;;5117702;28;20363;-82
2022/08/10 11:50:56;;;;;;;;;;;52.50;32.30;;;;;;5117507;28;19930;-80
2022/08/10 11:53:23;;;;;;;;;;;51.80;31.80;;;;;;5117370;28;19907;-80
2022/08/10 11:55:56;;;;;;;;;;;51.20;32.30;;;;;;5117194;28;19907;-83
2022/08/10 12:01:07;;;;;;;;;;;52.10;32.00;;;;;;5116803;28;19918;-85
2022/08/10 12:03:36;;;;;;;;;;;52.90;31.70;;;;;;5117609;28;19907;-84
2022/08/10 12:06:03;;;;;;;;;;;52.80;31.50;;;;;;5116374;28;19908;-83
2022/08/10 12:08:29;;;;;;;;;;;53.40;30.60;;;;;;5117082;28;19957;-84
2022/08/10 12:10:55;;;;;;;;;;;52.70;30.50;;;;;;5117235;28;19908;-83
2022/08/10 12:13:24;;;;;;;;;;;52.50;30.80;;;;;;5117606;28;19927;-83
2022/08/10 12:15:59;;;;;;;;;;;52.80;30.50;;;;;;5116980;28;20317;-81
2022/08/10 12:18:31;;;;;;;;;;;53.30;30.20;;;;;;5117398;28;19912;-85
2022/08/10 12:20:59;;;;;;;;;;;53.20;29.80;;;;;;5116974;28;19912;-83
2022/08/10 12:23:34;;;;;;;;;;;53.50;29.80;;;;;;5116877;28;19911;-82
2022/08/10 12:26:13;;;;;;;;;;;54.30;30.10;;;;;;5116834;28;19908;-82
2022/08/10 12:28:42;;;;;;;;;;;54.50;29.70;;;;;;5116526;28;19965;-85
2022/08/10 12:31:09;;;;;;;;;;;54.60;30.00;;;;;;5116801;28;19915;-83
2022/08/10 12:33:39;;;;;;;;;;;53.80;29.60;;;;;;5116605;28;19908;-81
2022/08/10 12:36:14;;;;;;;;;;;54.80;29.70;;;;;;5116530;28;19939;-84
2022/08/10 12:39:01;;;;;;;;;;;54.00;29.60;;;;;;5116840;28;19908;-82
2022/08/10 12:41:31;;;;;;;;;;;54.70;29.60;;;;;;5113444;28;19982;-81
2022/08/10 12:44:03;;;;;;;;;;;54.20;29.30;;;;;;5096387;28;19909;-81
2022/08/10 12:46:40;;;;;;;;;;;53.60;29.40;;;;;;5095949;28;19908;-79
2022/08/10 12:49:09;;;;;;;;;;;52.60;29.50;;;;;;5095769;28;19940;-80
2022/08/10 12:51:36;;;;;;;;;;;52.90;29.70;;;;;;5095835;28;20418;-83
2022/08/10 12:54:09;;;;;;;;;;;53.90;29.50;;;;;;5095824;28;19915;-80
2022/08/10 12:56:36;;;;;;;;;;;53.00;29.30;;;;;;5095718;28;19912;-81
2022/08/10 12:59:05;;;;;;;;;;;53.70;29.80;;;;;;5095580;28;19999;-81
2022/08/10 13:01:32;;;;;;;;;;;54.00;29.60;;;;;;5096014;28;19970;-81
2022/08/10 13:04:01;;;;;;;;;;;55.40;29.80;;;;;;5095461;28;19931;-81
2022/08/10 13:06:29;;;;;;;;;;;55.80;29.10;;;;;;5095464;28;19998;-83
2022/08/10 13:09:12;;;;;;;;;;;54.30;29.10;;;;;;5095472;28;19989;-82
2022/08/10 13:11:41;;;;;;;;;;;53.40;29.10;;;;;;5095470;28;19915;-83
2022/08/10 13:14:10;;;;;;;;;;;53.80;29.20;;;;;;5095241;28;19915;-82
2022/08/10 13:16:37;;;;;;;;;;;53.40;29.10;;;;;;5094853;28;20390;-81
2022/08/10 13:19:03;;;;;;;;;;;53.40;29.20;;;;;;5095320;28;20364;-81
2022/08/10 13:21:30;;;;;;;;;;;52.70;29.30;;;;;;5095094;28;19915;-80
2022/08/10 13:23:58;;;;;;;;;;;52.60;29.40;;;;;;5095400;28;20006;-81
2022/08/10 13:26:25;;;;;;;;;;;52.20;29.00;;;;;;5094947;28;19909;-82
2022/08/10 13:28:52;;;;;;;;;;;52.20;28.90;;;;;;5094960;28;19908;-82
2022/08/10 13:31:20;;;;;;;;;;;51.70;29.00;;;;;;5094995;28;19908;-83
2022/08/10 13:33:47;;;;;;;;;;;51.20;28.70;;;;;;5095276;28;20010;-82
2022/08/10 13:36:13;;;;;;;;;;;51.90;29.20;;;;;;5095125;28;19908;-80
2022/08/10 13:38:42;;;;;;;;;;;53.30;28.90;;;;;;5095038;28;19962;-83
2022/08/10 13:41:09;;;;;;;;;;;53.50;28.40;;;;;;5095133;28;19916;-81
2022/08/10 13:43:36;;;;;;;;;;;50.80;28.50;;;;;;5095305;28;19908;-81
2022/08/10 13:46:03;;;;;;;;;;;50.00;29.00;;;;;;5095101;28;20364;-83
2022/08/10 13:48:29;;;;;;;;;;;48.80;29.10;;;;;;5094823;28;20380;-81
2022/08/10 13:50:58;;;;;;;;;;;48.70;29.30;;;;;;5095022;28;19958;-80
2022/08/10 13:53:28;;;;;;;;;;;47.60;29.50;;;;;;5094661;28;19973;-81
2022/08/10 13:55:55;;;;;;;;;;;47.00;29.90;;;;;;5094809;28;20296;-82
2022/08/10 13:58:23;;;;;;;;;;;47.40;29.90;;;;;;5095340;28;20010;-80
2022/08/10 14:00:49;;;;;;;;;;;47.00;30.00;;;;;;5094950;28;19915;-80
2022/08/10 14:03:15;;;;;;;;;;;46.20;30.00;;;;;;5095018;28;19951;-82
2022/08/10 14:05:43;;;;;;;;;;;45.30;30.40;;;;;;5094526;28;19935;-82
2022/08/10 14:08:12;;;;;;;;;;;45.00;30.90;;;;;;5094352;28;19947;-82
2022/08/10 14:10:39;;;;;;;;;;;45.20;30.80;;;;;;5094437;28;19908;-80
2022/08/10 14:13:06;;;;;;;;;;;46.00;30.60;;;;;;5094688;28;19908;-82
2022/08/10 14:15:33;;;;;;;;;;;45.30;30.30;;;;;;5094498;28;19908;-82
2022/08/10 14:17:59;;;;;;;;;;;44.90;30.20;;;;;;5094932;28;19912;-78
2022/08/10 14:20:28;;;;;;;;;;;44.30;30.70;;;;;;5094441;28;19946;-80
2022/08/10 14:23:03;;;;;;;;;;;44.30;30.90;;;;;;5094322;28;19914;-82
2022/08/10 14:25:31;;;;;;;;;;;44.50;30.90;;;;;;5094165;28;20057;-80
2022/08/10 14:27:57;;;;;;;;;;;43.70;31.00;;;;;;5093808;28;19964;-79
2022/08/10 14:30:23;;;;;;;;;;;43.60;31.30;;;;;;5094185;28;19908;-80
2022/08/10 14:32:51;;;;;;;;;;;44.30;31.40;;;;;;5094069;28;19909;-80
2022/08/10 14:35:18;;;;;;;;;;;45.00;31.10;;;;;;5093957;28;19994;-81